Terminal Aerodrome Forecast
Issued by NWS

Home | Current Version | Previous Version | Text Only | Print | Product List | Glossary On
Versions: 1 2 3 4 5 6 7 8 9 10 11 12 13 14 15 16 17 18
000
FTAK31 PANC 170526
TAFADU
TAF
PADU 170526Z 1706/1806 32013G22KT P6SM VCSH BKN030
     FM170700 33015G25KT 5SM -SHSN SCT015 BKN025
     FM172100 29011KT P6SM VCSH SCT025 BKN040=

USA.gov is the U.S. government's official web portal to all federal, state and local government web resources and services.